sensor_id;sensor_type;location;lat;lon;timestamp;pressure;altitude;pressure_sealevel;temperature;humidity
48644;BME280;34928;37.302;-121.984;2023-03-14T00:00:43;101008.0;;;27.45;26.55
48644;BME280;34928;37.302;-121.984;2023-03-14T00:10:52;100997.0;;;27.27;26.71
48644;BME280;34928;37.302;-121.984;2023-03-14T00:20:59;100989.0;;;27.32;26.65
48644;BME280;34928;37.302;-121.984;2023-03-14T00:31:03;100965.0;;;27.48;26.40
48644;BME280;34928;37.302;-121.984;2023-03-14T00:41:09;100947.0;;;27.48;26.39
48644;BME280;34928;37.302;-121.984;2023-03-14T00:51:12;100929.0;;;27.89;26.79
48644;BME280;34928;37.302;-121.984;2023-03-14T01:01:18;100937.0;;;27.64;26.93
48644;BME280;34928;37.302;-121.984;2023-03-14T01:11:24;100957.0;;;27.50;26.97
48644;BME280;34928;37.302;-121.984;2023-03-14T01:21:29;100972.0;;;27.44;27.07
48644;BME280;34928;37.302;-121.984;2023-03-14T01:31:34;100980.0;;;27.49;26.80
48644;BME280;34928;37.302;-121.984;2023-03-14T01:41:37;100973.0;;;27.47;26.81
48644;BME280;34928;37.302;-121.984;2023-03-14T01:51:48;100965.0;;;27.97;26.49
48644;BME280;34928;37.302;-121.984;2023-03-14T02:01:53;100956.0;;;27.58;26.60
48644;BME280;34928;37.302;-121.984;2023-03-14T02:11:57;100949.0;;;27.50;26.99
48644;BME280;34928;37.302;-121.984;2023-03-14T02:22:07;100935.0;;;27.63;27.25
48644;BME280;34928;37.302;-121.984;2023-03-14T02:32:13;100915.0;;;27.91;27.29
48644;BME280;34928;37.302;-121.984;2023-03-14T02:42:18;100928.0;;;27.61;27.43
48644;BME280;34928;37.302;-121.984;2023-03-14T02:52:22;100917.0;;;27.50;27.31
48644;BME280;34928;37.302;-121.984;2023-03-14T03:02:28;100933.0;;;27.47;27.30
48644;BME280;34928;37.302;-121.984;2023-03-14T03:12:32;100929.0;;;27.64;27.22
48644;BME280;34928;37.302;-121.984;2023-03-14T03:22:38;100941.0;;;27.53;27.19
48644;BME280;34928;37.302;-121.984;2023-03-14T03:32:42;100947.0;;;27.51;26.91
48644;BME280;34928;37.302;-121.984;2023-03-14T03:42:49;100956.0;;;27.22;27.24
48644;BME280;34928;37.302;-121.984;2023-03-14T03:52:53;100944.0;;;27.24;27.16
48644;BME280;34928;37.302;-121.984;2023-03-14T04:02:58;100951.0;;;27.25;27.08
48644;BME280;34928;37.302;-121.984;2023-03-14T04:13:02;100960.0;;;27.65;27.06
48644;BME280;34928;37.302;-121.984;2023-03-14T04:23:07;100940.0;;;27.74;27.09
48644;BME280;34928;37.302;-121.984;2023-03-14T04:33:13;100946.0;;;27.32;27.11
48644;BME280;34928;37.302;-121.984;2023-03-14T04:43:17;100938.0;;;27.07;27.66
48644;BME280;34928;37.302;-121.984;2023-03-14T04:53:28;100942.0;;;26.68;28.35
48644;BME280;34928;37.302;-121.984;2023-03-14T05:03:32;100923.0;;;26.54;28.96
48644;BME280;34928;37.302;-121.984;2023-03-14T05:13:37;100925.0;;;26.61;29.34
48644;BME280;34928;37.302;-121.984;2023-03-14T05:23:42;100909.0;;;26.37;29.75
48644;BME280;34928;37.302;-121.984;2023-03-14T05:33:47;100876.0;;;26.39;29.80
48644;BME280;34928;37.302;-121.984;2023-03-14T05:43:52;100860.0;;;26.58;28.56
48644;BME280;34928;37.302;-121.984;2023-03-14T05:53:57;100859.0;;;27.06;28.67
48644;BME280;34928;37.302;-121.984;2023-03-14T06:04:02;100843.0;;;26.94;28.83
48644;BME280;34928;37.302;-121.984;2023-03-14T06:14:17;100833.0;;;27.02;28.53
48644;BME280;34928;37.302;-121.984;2023-03-14T06:24:23;100831.0;;;27.03;28.39
48644;BME280;34928;37.302;-121.984;2023-03-14T06:34:27;100806.0;;;27.26;28.23
48644;BME280;34928;37.302;-121.984;2023-03-14T06:44:33;100787.0;;;26.99;28.20
48644;BME280;34928;37.302;-121.984;2023-03-14T06:54:38;100780.0;;;27.01;28.16
48644;BME280;34928;37.302;-121.984;2023-03-14T07:04:42;100762.0;;;26.99;28.18
48644;BME280;34928;37.302;-121.984;2023-03-14T07:14:47;100759.0;;;27.20;28.18
48644;BME280;34928;37.302;-121.984;2023-03-14T07:24:52;100743.0;;;26.92;28.14
48644;BME280;34928;37.302;-121.984;2023-03-14T07:34:58;100721.0;;;26.90;28.12
48644;BME280;34928;37.302;-121.984;2023-03-14T07:45:02;100708.0;;;26.81;27.53
48644;BME280;34928;37.302;-121.984;2023-03-14T07:55:09;100685.0;;;26.61;27.72
48644;BME280;34928;37.302;-121.984;2023-03-14T08:05:17;100667.0;;;26.27;28.17
48644;BME280;34928;37.302;-121.984;2023-03-14T08:15:22;100654.0;;;26.58;28.66
48644;BME280;34928;37.302;-121.984;2023-03-14T08:25:28;100651.0;;;26.85;28.69
48644;BME280;34928;37.302;-121.984;2023-03-14T08:35:33;100628.0;;;26.59;28.63
48644;BME280;34928;37.302;-121.984;2023-03-14T08:45:37;100620.0;;;26.56;28.67
48644;BME280;34928;37.302;-121.984;2023-03-14T08:55:42;100603.0;;;26.56;28.68
48644;BME280;34928;37.302;-121.984;2023-03-14T09:05:47;100597.0;;;27.02;28.74
48644;BME280;34928;37.302;-121.984;2023-03-14T09:15:52;100580.0;;;26.52;28.69
48644;BME280;34928;37.302;-121.984;2023-03-14T09:25:58;100569.0;;;26.60;28.84
48644;BME280;34928;37.302;-121.984;2023-03-14T09:36:04;100556.0;;;26.51;28.86
48644;BME280;34928;37.302;-121.984;2023-03-14T09:46:10;100535.0;;;26.24;28.82
48644;BME280;34928;37.302;-121.984;2023-03-14T09:56:19;100517.0;;;26.44;28.83
48644;BME280;34928;37.302;-121.984;2023-03-14T10:06:25;100493.0;;;26.44;28.88
48644;BME280;34928;37.302;-121.984;2023-03-14T10:16:35;100464.0;;;26.21;28.80
48644;BME280;34928;37.302;-121.984;2023-03-14T10:26:48;100436.0;;;26.46;28.66
48644;BME280;34928;37.302;-121.984;2023-03-14T10:36:55;100428.0;;;26.13;28.65
48644;BME280;34928;37.302;-121.984;2023-03-14T10:47:04;100418.0;;;26.37;28.65
48644;BME280;34928;37.302;-121.984;2023-03-14T10:57:07;100387.0;;;26.25;28.74
48644;BME280;34928;37.302;-121.984;2023-03-14T11:07:16;100348.0;;;26.18;28.62
48644;BME280;34928;37.302;-121.984;2023-03-14T11:17:34;100314.0;;;26.42;28.55
48644;BME280;34928;37.302;-121.984;2023-03-14T11:27:44;100288.0;;;26.09;28.63
48644;BME280;34928;37.302;-121.984;2023-03-14T11:37:56;100255.0;;;26.27;28.52
48644;BME280;34928;37.302;-121.984;2023-03-14T11:48:16;100221.0;;;26.05;28.60
48644;BME280;34928;37.302;-121.984;2023-03-14T11:58:27;100208.0;;;26.31;28.68
48644;BME280;34928;37.302;-121.984;2023-03-14T12:08:40;100214.0;;;26.28;28.61
48644;BME280;34928;37.302;-121.984;2023-03-14T12:18:47;100202.0;;;26.00;28.65
48644;BME280;34928;37.302;-121.984;2023-03-14T12:39:20;100125.0;;;26.10;28.47
48644;BME280;34928;37.302;-121.984;2023-03-14T12:49:31;100081.0;;;25.83;28.33
48644;BME280;34928;37.302;-121.984;2023-03-14T12:59:48;100048.0;;;25.74;28.30
48644;BME280;34928;37.302;-121.984;2023-03-14T13:09:56;100030.0;;;25.92;28.52
48644;BME280;34928;37.302;-121.984;2023-03-14T13:20:11;99997.0;;;25.87;28.82
48644;BME280;34928;37.302;-121.984;2023-03-14T13:30:21;99960.0;;;25.70;28.69
48644;BME280;34928;37.302;-121.984;2023-03-14T13:40:31;99939.0;;;25.73;28.67
48644;BME280;34928;37.302;-121.984;2023-03-14T13:50:37;99929.0;;;25.36;28.77
48644;BME280;34928;37.302;-121.984;2023-03-14T14:00:42;99910.0;;;25.63;28.56
48644;BME280;34928;37.302;-121.984;2023-03-14T14:10:48;99886.0;;;25.51;28.55
48644;BME280;34928;37.302;-121.984;2023-03-14T14:20:52;99871.0;;;25.89;28.83
48644;BME280;34928;37.302;-121.984;2023-03-14T14:31:03;99825.0;;;26.47;28.79
48644;BME280;34928;37.302;-121.984;2023-03-14T14:41:12;99764.0;;;26.26;28.62
48644;BME280;34928;37.302;-121.984;2023-03-14T14:51:26;99770.0;;;27.03;28.51
48644;BME280;34928;37.302;-121.984;2023-03-14T15:01:35;99787.0;;;26.46;28.66
48644;BME280;34928;37.302;-121.984;2023-03-14T15:11:42;99792.0;;;26.31;28.54
48644;BME280;34928;37.302;-121.984;2023-03-14T15:21:47;99755.0;;;26.68;28.58
48644;BME280;34928;37.302;-121.984;2023-03-14T15:31:52;99757.0;;;26.36;28.60
48644;BME280;34928;37.302;-121.984;2023-03-14T15:41:57;99750.0;;;26.67;28.37
48644;BME280;34928;37.302;-121.984;2023-03-14T15:52:02;99715.0;;;26.56;28.33
48644;BME280;34928;37.302;-121.984;2023-03-14T16:02:09;99713.0;;;26.30;28.28
48644;BME280;34928;37.302;-121.984;2023-03-14T16:12:12;99693.0;;;26.04;28.17
48644;BME280;34928;37.302;-121.984;2023-03-14T16:22:17;99694.0;;;25.99;28.17
48644;BME280;34928;37.302;-121.984;2023-03-14T16:32:22;99701.0;;;26.35;28.23
48644;BME280;34928;37.302;-121.984;2023-03-14T16:42:33;99692.0;;;26.28;28.24
48644;BME280;34928;37.302;-121.984;2023-03-14T16:52:38;99687.0;;;26.14;28.14
48644;BME280;34928;37.302;-121.984;2023-03-14T17:02:43;99683.0;;;26.37;28.10
48644;BME280;34928;37.302;-121.984;2023-03-14T17:12:47;99666.0;;;26.22;28.23
48644;BME280;34928;37.302;-121.984;2023-03-14T17:22:52;99668.0;;;26.04;28.21
48644;BME280;34928;37.302;-121.984;2023-03-14T17:33:01;99661.0;;;26.11;28.19
48644;BME280;34928;37.302;-121.984;2023-03-14T17:43:08;99652.0;;;26.32;28.25
48644;BME280;34928;37.302;-121.984;2023-03-14T17:53:12;99655.0;;;26.07;28.49
